Time,TemperatureF,DewpointF,PressureIn,WindDirection,WindDirectionDegrees,WindSpeedMPH,WindSpeedGustMPH,Humidity,HourlyPrecipIn,Conditions,Clouds,dailyrainin,SoftwareType,DateUTC
2013-03-08 00:00:00,60.1,53.2,30.15,NW,313,0.0,8.0,78,0.00,,,0.00,WeatherCatV1.13B119,2013-03-08 05:00:00,
2013-03-08 00:05:00,60.0,53.1,30.15,WNW,296,4.0,8.0,78,0.00,,,0.00,WeatherCatV1.13B119,2013-03-08 05:05:00,
2013-03-08 00:10:00,59.9,53.0,30.14,NNW,338,4.0,9.0,78,0.00,,,0.00,WeatherCatV1.13B119,2013-03-08 05:10:00,
2013-03-08 00:15:00,59.9,53.0,30.14,NW,307,1.0,2.0,78,0.00,,,0.00,WeatherCatV1.13B119,2013-03-08 05:15:00,
2013-03-08 00:20:00,59.8,52.9,30.14,WNW,287,1.0,7.0,78,0.00,,,0.00,WeatherCatV1.13B119,2013-03-08 05:20:00,
2013-03-08 00:25:00,59.8,53.3,30.14,NW,314,5.0,5.0,79,0.00,,,0.00,WeatherCatV1.13B119,2013-03-08 05:25:00,
2013-03-08 00:30:00,59.8,53.3,30.13,North,350,4.0,6.0,79,0.00,,,0.00,WeatherCatV1.13B119,2013-03-08 05:30:00,
2013-03-08 00:32:00,59.7,53.2,30.13,NW,325,4.0,6.0,79,0.00,,,0.00,WeatherCatV1.13B119,2013-03-08 05:32:00,
2013-03-08 00:37:00,59.6,53.1,30.13,NNW,336,0.0,5.0,79,0.00,,,0.00,WeatherCatV1.13B119,2013-03-08 05:37:00,
2013-03-08 00:42:00,59.5,53.0,30.13,NW,316,0.0,8.0,79,0.00,,,0.00,WeatherCatV1.13B119,2013-03-08 05:42:00,
2013-03-08 00:47:00,59.3,52.8,30.13,North,355,5.0,9.0,79,0.00,,,0.00,WeatherCatV1.13B119,2013-03-08 05:47:00,
2013-03-08 00:52:00,59.2,52.7,30.13,NW,325,2.0,8.0,79,0.00,,,0.00,WeatherCatV1.13B119,2013-03-08 05:52:00,
2013-03-08 00:57:00,59.1,52.6,30.13,NNW,330,8.0,9.0,79,0.00,,,0.00,WeatherCatV1.13B119,2013-03-08 05:57:00,
2013-03-08 01:02:00,59.1,52.9,30.13,NW,309,6.0,8.0,80,0.00,,,0.00,WeatherCatV1.13B119,2013-03-08 06:02:00,
2013-03-08 01:07:00,59.0,52.8,30.13,NNW,338,0.0,7.0,80,0.00,,,0.00,WeatherCatV1.13B119,2013-03-08 06:07:00,
2013-03-08 01:12:00,58.9,52.7,30.12,NW,317,0.0,7.0,80,0.00,,,0.00,WeatherCatV1.13B119,2013-03-08 06:12:00,
2013-03-08 01:17:00,58.9,52.7,30.12,NW,317,7.0,8.0,80,0.00,,,0.00,WeatherCatV1.13B119,2013-03-08 06:17:00,
2013-03-08 01:22:00,58.8,52.6,30.12,NW,306,0.0,4.0,80,0.00,,,0.00,WeatherCatV1.13B119,2013-03-08 06:22:00,
2013-03-08 01:27:00,58.8,52.6,30.12,NW,319,0.0,4.0,80,0.00,,,0.00,WeatherCatV1.13B119,2013-03-08 06:27:00,
2013-03-08 01:32:00,58.8,53.0,30.12,NNW,332,0.0,6.0,81,0.00,,,0.00,WeatherCatV1.13B119,2013-03-08 06:32:00,
2013-03-08 01:37:00,58.7,52.9,30.12,NNW,331,1.0,9.0,81,0.00,,,0.00,WeatherCatV1.13B119,2013-03-08 06:37:00,
2013-03-08 01:42:00,58.7,52.9,30.12,NNW,344,1.0,6.0,81,0.00,,,0.00,WeatherCatV1.13B119,2013-03-08 06:42:00,
2013-03-08 01:47:00,58.7,53.2,30.12,NW,315,4.0,7.0,82,0.00,,,0.00,WeatherCatV1.13B119,2013-03-08 06:47:00,
2013-03-08 01:52:00,58.6,53.1,30.12,NW,323,0.0,6.0,82,0.00,,,0.00,WeatherCatV1.13B119,2013-03-08 06:52:00,
2013-03-08 01:57:00,58.6,53.1,30.12,NW,325,4.0,9.0,82,0.00,,,0.00,WeatherCatV1.13B119,2013-03-08 06:57:00,
2013-03-08 02:02:00,58.6,53.1,30.11,NNW,328,1.0,6.0,82,0.00,,,0.00,WeatherCatV1.13B119,2013-03-08 07:02:00,
2013-03-08 02:07:00,58.5,53.0,30.11,NNW,333,1.0,6.0,82,0.00,,,0.00,WeatherCatV1.13B119,2013-03-08 07:07:00,
2013-03-08 02:12:00,58.4,52.9,30.11,NW,304,0.0,6.0,82,0.00,,,0.00,WeatherCatV1.13B119,2013-03-08 07:12:00,
2013-03-08 02:17:00,58.3,52.8,30.11,NNW,338,1.0,5.0,82,0.00,,,0.00,WeatherCatV1.13B119,2013-03-08 07:17:00,
2013-03-08 02:22:00,58.2,52.7,30.11,WNW,298,2.0,7.0,82,0.00,,,0.00,WeatherCatV1.13B119,2013-03-08 07:22:00,
2013-03-08 02:27:00,58.2,52.7,30.11,NW,319,6.0,8.0,82,0.00,,,0.00,WeatherCatV1.13B119,2013-03-08 07:27:00,
2013-03-08 02:32:00,58.0,52.2,30.11,NNW,338,2.0,5.0,81,0.00,,,0.00,WeatherCatV1.13B119,2013-03-08 07:32:00,
2013-03-08 02:37:00,58.0,52.5,30.11,NNW,342,2.0,6.0,82,0.00,,,0.00,WeatherCatV1.13B119,2013-03-08 07:37:00,
2013-03-08 02:42:00,57.8,52.3,30.10,NNW,342,7.0,7.0,82,0.00,,,0.00,WeatherCatV1.13B119,2013-03-08 07:42:00,
2013-03-08 02:47:00,57.8,52.3,30.10,NNW,342,7.0,7.0,82,0.00,,,0.00,WeatherCatV1.13B119,2013-03-08 07:47:00,
2013-03-08 02:52:00,-999.0,-99.9,30.10,North,-999,-999.0,0.0,-999,0.00,,,0.00,WeatherCatV1.13B119,2013-03-08 07:52:00,
2013-03-08 02:57:00,-999.0,-99.9,30.10,North,-999,-999.0,0.0,-999,0.00,,,0.00,WeatherCatV1.13B119,2013-03-08 07:57:00,
2013-03-08 03:02:00,-999.0,-99.9,30.10,North,-999,-999.0,0.0,-999,0.00,,,0.00,WeatherCatV1.13B119,2013-03-08 08:02:00,
2013-03-08 03:07:00,-999.0,-99.9,30.10,North,-999,-999.0,0.0,-999,0.00,,,0.00,WeatherCatV1.13B119,2013-03-08 08:07:00,
2013-03-08 03:12:00,-999.0,-99.9,30.10,North,-999,-999.0,0.0,-999,0.00,,,0.00,WeatherCatV1.13B119,2013-03-08 08:12:00,
2013-03-08 03:17:00,-999.0,-99.9,30.10,North,-999,-999.0,0.0,-999,0.00,,,0.00,WeatherCatV1.13B119,2013-03-08 08:17:00,
2013-03-08 03:22:00,-999.0,-99.9,30.10,North,-999,-999.0,0.0,-999,0.00,,,0.00,WeatherCatV1.13B119,2013-03-08 08:22:00,
2013-03-08 03:27:00,-999.0,-99.9,30.10,North,-999,-999.0,0.0,-999,0.00,,,0.00,WeatherCatV1.13B119,2013-03-08 08:27:00,
2013-03-08 03:32:00,-999.0,-99.9,30.10,North,-999,-999.0,0.0,-999,0.00,,,0.00,WeatherCatV1.13B119,2013-03-08 08:32:00,
2013-03-08 03:37:00,-999.0,-99.9,30.09,North,-999,-999.0,0.0,-999,0.00,,,0.00,WeatherCatV1.13B119,2013-03-08 08:37:00,
2013-03-08 03:42:00,-999.0,-99.9,30.10,North,-999,-999.0,0.0,-999,0.00,,,0.00,WeatherCatV1.13B119,2013-03-08 08:42:00,
2013-03-08 03:47:00,-999.0,-99.9,30.09,North,-999,-999.0,0.0,-999,0.00,,,0.00,WeatherCatV1.13B119,2013-03-08 08:47:00,
2013-03-08 03:52:00,-999.0,-99.9,30.09,North,-999,-999.0,0.0,-999,0.00,,,0.00,WeatherCatV1.13B119,2013-03-08 08:52:00,
2013-03-08 03:57:00,-999.0,-99.9,30.09,North,-999,-999.0,0.0,-999,0.00,,,0.00,WeatherCatV1.13B119,2013-03-08 08:57:00,
2013-03-08 04:02:00,-999.0,-99.9,30.09,North,-999,-999.0,0.0,-999,0.00,,,0.00,WeatherCatV1.13B119,2013-03-08 09:02:00,
2013-03-08 04:07:00,-999.0,-99.9,30.09,North,-999,-999.0,0.0,-999,0.00,,,0.00,WeatherCatV1.13B119,2013-03-08 09:07:00,
2013-03-08 04:12:00,-999.0,-99.9,30.09,North,-999,-999.0,0.0,-999,0.00,,,0.00,WeatherCatV1.13B119,2013-03-08 09:12:00,
2013-03-08 04:17:00,-999.0,-99.9,30.09,North,-999,-999.0,0.0,-999,0.00,,,0.00,WeatherCatV1.13B119,2013-03-08 09:17:00,
2013-03-08 04:22:00,-999.0,-99.9,30.09,North,-999,-999.0,0.0,-999,0.00,,,0.00,WeatherCatV1.13B119,2013-03-08 09:22:00,
2013-03-08 04:27:00,-999.0,-99.9,30.09,North,-999,-999.0,0.0,-999,0.00,,,0.00,WeatherCatV1.13B119,2013-03-08 09:27:00,
2013-03-08 04:32:00,-999.0,-99.9,30.09,North,-999,-999.0,0.0,-999,0.00,,,0.00,WeatherCatV1.13B119,2013-03-08 09:32:00,
2013-03-08 04:37:00,-999.0,-99.9,30.09,North,-999,-999.0,0.0,-999,0.00,,,0.00,WeatherCatV1.13B119,2013-03-08 09:37:00,
2013-03-08 04:42:00,-999.0,-99.9,30.09,North,-999,-999.0,0.0,-999,0.00,,,0.00,WeatherCatV1.13B119,2013-03-08 09:42:00,
2013-03-08 04:47:00,-999.0,-99.9,30.10,North,-999,-999.0,0.0,-999,0.00,,,0.00,WeatherCatV1.13B119,2013-03-08 09:47:00,
2013-03-08 04:52:00,-999.0,-99.9,30.10,North,-999,-999.0,0.0,-999,0.00,,,0.00,WeatherCatV1.13B119,2013-03-08 09:52:00,
2013-03-08 04:57:00,-999.0,-99.9,30.10,North,-999,-999.0,0.0,-999,0.00,,,0.00,WeatherCatV1.13B119,2013-03-08 09:57:00,
2013-03-08 05:02:00,-999.0,-99.9,30.10,North,-999,-999.0,0.0,-999,0.00,,,0.00,WeatherCatV1.13B119,2013-03-08 10:02:00,
2013-03-08 05:07:00,-999.0,-99.9,30.10,North,-999,-999.0,0.0,-999,0.00,,,0.00,WeatherCatV1.13B119,2013-03-08 10:07:00,
2013-03-08 05:12:00,-999.0,-99.9,30.10,North,-999,-999.0,0.0,-999,0.00,,,0.00,WeatherCatV1.13B119,2013-03-08 10:12:00,
2013-03-08 05:17:00,-999.0,-99.9,30.10,North,-999,-999.0,0.0,-999,0.00,,,0.00,WeatherCatV1.13B119,2013-03-08 10:17:00,
2013-03-08 05:22:00,-999.0,-99.9,30.10,North,-999,-999.0,0.0,-999,0.00,,,0.00,WeatherCatV1.13B119,2013-03-08 10:22:00,
2013-03-08 05:27:00,-999.0,-99.9,30.10,North,-999,-999.0,0.0,-999,0.00,,,0.00,WeatherCatV1.13B119,2013-03-08 10:27:00,
2013-03-08 05:32:00,-999.0,-99.9,30.11,North,-999,-999.0,0.0,-999,0.00,,,0.00,WeatherCatV1.13B119,2013-03-08 10:32:00,
2013-03-08 05:37:00,-999.0,-99.9,30.11,North,-999,-999.0,0.0,-999,0.00,,,0.00,WeatherCatV1.13B119,2013-03-08 10:37:00,
2013-03-08 05:42:00,-999.0,-99.9,30.11,North,-999,-999.0,0.0,-999,0.00,,,0.00,WeatherCatV1.13B119,2013-03-08 10:42:00,
2013-03-08 05:47:00,-999.0,-99.9,30.11,North,-999,-999.0,0.0,-999,0.00,,,0.00,WeatherCatV1.13B119,2013-03-08 10:47:00,
2013-03-08 05:52:00,-999.0,-99.9,30.11,North,-999,-999.0,0.0,-999,0.00,,,0.00,WeatherCatV1.13B119,2013-03-08 10:52:00,
2013-03-08 05:57:00,-999.0,-99.9,30.11,North,-999,-999.0,0.0,-999,0.00,,,0.00,WeatherCatV1.13B119,2013-03-08 10:57:00,
2013-03-08 06:02:00,-999.0,-99.9,30.11,North,-999,-999.0,0.0,-999,0.00,,,0.00,WeatherCatV1.13B119,2013-03-08 11:02:00,
2013-03-08 06:07:00,-999.0,-99.9,30.11,North,-999,-999.0,0.0,-999,0.00,,,0.00,WeatherCatV1.13B119,2013-03-08 11:07:00,
2013-03-08 06:12:00,-999.0,-99.9,30.11,North,-999,-999.0,0.0,-999,0.00,,,0.00,WeatherCatV1.13B119,2013-03-08 11:12:00,
2013-03-08 06:17:00,-999.0,-99.9,30.11,North,-999,-999.0,0.0,-999,0.00,,,0.00,WeatherCatV1.13B119,2013-03-08 11:17:00,
2013-03-08 06:22:00,-999.0,-99.9,30.11,North,-999,-999.0,0.0,-999,0.00,,,0.00,WeatherCatV1.13B119,2013-03-08 11:22:00,
2013-03-08 06:27:00,-999.0,-99.9,30.11,North,-999,-999.0,0.0,-999,0.00,,,0.00,WeatherCatV1.13B119,2013-03-08 11:27:00,
2013-03-08 06:32:00,-999.0,-99.9,30.11,North,-999,-999.0,0.0,-999,0.00,,,0.00,WeatherCatV1.13B119,2013-03-08 11:32:00,
2013-03-08 06:37:00,-999.0,-99.9,30.11,North,-999,-999.0,0.0,-999,0.00,,,0.00,WeatherCatV1.13B119,2013-03-08 11:37:00,
2013-03-08 06:42:00,-999.0,-99.9,30.11,North,-999,-999.0,0.0,-999,0.00,,,0.00,WeatherCatV1.13B119,2013-03-08 11:42:00,
2013-03-08 06:47:00,-999.0,-99.9,30.12,North,-999,-999.0,0.0,-999,0.00,,,0.00,WeatherCatV1.13B119,2013-03-08 11:47:00,
2013-03-08 06:52:00,-999.0,-99.9,30.12,North,-999,-999.0,0.0,-999,0.00,,,0.00,WeatherCatV1.13B119,2013-03-08 11:52:00,
2013-03-08 06:53:00,-999.0,-99.9,30.12,North,-999,-999.0,0.0,-999,0.00,,,0.00,WeatherCatV1.13B119,2013-03-08 11:53:00,
2013-03-08 06:58:00,-999.0,-99.9,30.12,North,-999,-999.0,0.0,-999,0.00,,,0.00,WeatherCatV1.13B119,2013-03-08 11:58:00,
2013-03-08 07:03:00,-999.0,-99.9,30.13,North,-999,-999.0,0.0,-999,0.00,,,0.00,WeatherCatV1.13B119,2013-03-08 12:03:00,
2013-03-08 07:08:00,-999.0,-99.9,30.13,North,-999,-999.0,0.0,-999,0.00,,,0.00,WeatherCatV1.13B119,2013-03-08 12:08:00,
2013-03-08 07:13:00,-999.0,-99.9,30.13,North,-999,-999.0,0.0,-999,0.00,,,0.00,WeatherCatV1.13B119,2013-03-08 12:13:00,
2013-03-08 07:18:00,-999.0,-99.9,30.14,North,-999,-999.0,0.0,-999,0.00,,,0.00,WeatherCatV1.13B119,2013-03-08 12:18:00,
2013-03-08 07:23:00,-999.0,-99.9,30.14,North,-999,-999.0,0.0,-999,0.00,,,0.00,WeatherCatV1.13B119,2013-03-08 12:23:00,
2013-03-08 07:28:00,-999.0,-99.9,30.14,North,-999,-999.0,0.0,-999,0.00,,,0.00,WeatherCatV1.13B119,2013-03-08 12:28:00,
2013-03-08 07:33:00,-999.0,-99.9,30.14,North,-999,-999.0,0.0,-999,0.00,,,0.00,WeatherCatV1.13B119,2013-03-08 12:33:00,
2013-03-08 07:38:00,-999.0,-99.9,30.14,North,-999,-999.0,0.0,-999,0.00,,,0.00,WeatherCatV1.13B119,2013-03-08 12:38:00,
2013-03-08 07:43:00,-999.0,-99.9,30.14,North,-999,-999.0,0.0,-999,0.00,,,0.00,WeatherCatV1.13B119,2013-03-08 12:43:00,
2013-03-08 07:48:00,-999.0,-99.9,30.14,North,-999,-999.0,0.0,-999,0.00,,,0.00,WeatherCatV1.13B119,2013-03-08 12:48:00,
2013-03-08 07:53:00,58.7,54.8,30.14,NNW,342,0.0,6.0,87,0.00,,,0.00,WeatherCatV1.13B119,2013-03-08 12:53:00,
2013-03-08 07:58:00,58.9,55.0,30.14,North,11,3.0,10.0,87,0.00,,,0.00,WeatherCatV1.13B119,2013-03-08 12:58:00,
2013-03-08 08:03:00,59.1,54.9,30.14,NNW,338,3.0,7.0,86,0.00,,,0.00,WeatherCatV1.13B119,2013-03-08 13:03:00,
2013-03-08 08:08:00,59.3,54.8,30.14,NNW,342,1.0,9.0,85,0.00,,,0.00,WeatherCatV1.13B119,2013-03-08 13:08:00,
2013-03-08 08:13:00,59.5,54.7,30.14,North,351,3.0,8.0,84,0.00,,,0.00,WeatherCatV1.13B119,2013-03-08 13:13:00,
2013-03-08 08:18:00,59.7,54.5,30.15,North,355,0.0,8.0,83,0.00,,,0.00,WeatherCatV1.13B119,2013-03-08 13:18:00,
2013-03-08 08:23:00,59.9,54.4,30.15,North,350,5.0,10.0,82,0.00,,,0.00,WeatherCatV1.13B119,2013-03-08 13:23:00,
2013-03-08 08:28:00,60.1,54.6,30.15,NNW,333,6.0,8.0,82,0.00,,,0.00,WeatherCatV1.13B119,2013-03-08 13:28:00,
2013-03-08 08:33:00,60.3,54.4,30.15,NNW,333,5.0,10.0,81,0.00,,,0.00,WeatherCatV1.13B119,2013-03-08 13:33:00,
2013-03-08 08:38:00,60.5,54.3,30.15,NNE,27,10.0,10.0,80,0.00,,,0.00,WeatherCatV1.13B119,2013-03-08 13:38:00,
2013-03-08 08:43:00,60.7,54.5,30.15,NNE,20,0.0,8.0,80,0.00,,,0.00,WeatherCatV1.13B119,2013-03-08 13:43:00,
2013-03-08 08:48:00,61.0,54.8,30.15,NNE,22,6.0,10.0,80,0.00,,,0.00,WeatherCatV1.13B119,2013-03-08 13:48:00,
2013-03-08 08:53:00,61.3,54.7,30.15,ENE,67,5.0,11.0,79,0.00,,,0.00,WeatherCatV1.13B119,2013-03-08 13:53:00,
2013-03-08 08:58:00,61.5,54.2,30.15,NNW,346,7.0,11.0,77,0.00,,,0.00,WeatherCatV1.13B119,2013-03-08 13:58:00,
2013-03-08 09:03:00,62.8,54.8,30.15,North,9,0.0,6.0,75,0.00,,,0.00,WeatherCatV1.13B119,2013-03-08 14:03:00,
2013-03-08 09:08:00,63.5,55.1,30.15,NNE,28,3.0,8.0,74,0.00,,,0.00,WeatherCatV1.13B119,2013-03-08 14:08:00,
2013-03-08 09:13:00,63.6,55.2,30.15,NW,306,6.0,10.0,74,0.00,,,0.00,WeatherCatV1.13B119,2013-03-08 14:13:00,
2013-03-08 09:18:00,63.6,55.2,30.15,NE,40,6.0,16.0,74,0.00,,,0.00,WeatherCatV1.13B119,2013-03-08 14:18:00,
2013-03-08 09:23:00,63.8,55.0,30.15,North,0,7.0,10.0,73,0.00,,,0.00,WeatherCatV1.13B119,2013-03-08 14:23:00,
2013-03-08 09:28:00,64.5,55.3,30.15,NNE,19,7.0,8.0,72,0.00,,,0.00,WeatherCatV1.13B119,2013-03-08 14:28:00,
2013-03-08 09:33:00,65.2,55.2,30.15,North,5,4.0,10.0,70,0.00,,,0.00,WeatherCatV1.13B119,2013-03-08 14:33:00,
2013-03-08 09:38:00,65.2,55.6,30.15,North,355,0.0,6.0,71,0.00,,,0.00,WeatherCatV1.13B119,2013-03-08 14:38:00,
2013-03-08 09:43:00,65.5,56.2,30.15,North,351,8.0,8.0,72,0.00,,,0.00,WeatherCatV1.13B119,2013-03-08 14:43:00,
2013-03-08 09:48:00,65.6,56.3,30.15,NNW,340,0.0,7.0,72,0.00,,,0.00,WeatherCatV1.13B119,2013-03-08 14:48:00,
2013-03-08 09:53:00,65.8,56.1,30.15,North,355,5.0,11.0,71,0.00,,,0.00,WeatherCatV1.13B119,2013-03-08 14:53:00,
2013-03-08 09:58:00,65.9,56.6,30.15,NNW,336,1.0,6.0,72,0.00,,,0.00,WeatherCatV1.13B119,2013-03-08 14:58:00,
2013-03-08 10:03:00,65.9,55.8,30.15,NNE,14,2.0,7.0,70,0.00,,,0.00,WeatherCatV1.13B119,2013-03-08 15:03:00,
2013-03-08 10:08:00,66.5,56.8,30.16,NW,315,10.0,11.0,71,0.00,,,0.00,WeatherCatV1.13B119,2013-03-08 15:08:00,
2013-03-08 10:13:00,66.9,56.4,30.16,WNW,298,4.0,6.0,69,0.00,,,0.00,WeatherCatV1.13B119,2013-03-08 15:13:00,
2013-03-08 10:18:00,67.0,56.1,30.16,NNW,341,5.0,8.0,68,0.00,,,0.00,WeatherCatV1.13B119,2013-03-08 15:18:00,
2013-03-08 10:23:00,67.3,56.0,30.16,NNW,337,9.0,9.0,67,0.00,,,0.00,WeatherCatV1.13B119,2013-03-08 15:23:00,
2013-03-08 10:28:00,67.2,55.9,30.16,NNW,346,9.0,10.0,67,0.00,,,0.00,WeatherCatV1.13B119,2013-03-08 15:28:00,
2013-03-08 10:33:00,68.1,56.3,30.16,NNW,342,0.0,9.0,66,0.00,,,0.00,WeatherCatV1.13B119,2013-03-08 15:33:00,
2013-03-08 10:38:00,68.2,56.0,30.16,NNW,337,8.0,10.0,65,0.00,,,0.00,WeatherCatV1.13B119,2013-03-08 15:38:00,
2013-03-08 10:43:00,68.5,56.3,30.16,North,0,9.0,10.0,65,0.00,,,0.00,WeatherCatV1.13B119,2013-03-08 15:43:00,
2013-03-08 10:48:00,68.9,56.2,30.16,NNE,19,2.0,9.0,64,0.00,,,0.00,WeatherCatV1.13B119,2013-03-08 15:48:00,
2013-03-08 10:53:00,68.9,55.3,30.15,North,5,9.0,11.0,62,0.00,,,0.00,WeatherCatV1.13B119,2013-03-08 15:53:00,
2013-03-08 10:58:00,69.2,56.1,30.15,NW,325,1.0,11.0,63,0.00,,,0.00,WeatherCatV1.13B119,2013-03-08 15:58:00,
2013-03-08 11:03:00,69.6,56.4,30.15,NNE,17,5.0,10.0,63,0.00,,,0.00,WeatherCatV1.13B119,2013-03-08 16:03:00,
2013-03-08 11:08:00,70.1,56.5,30.15,NE,40,0.0,9.0,62,0.00,,,0.00,WeatherCatV1.13B119,2013-03-08 16:08:00,
2013-03-08 11:13:00,70.6,56.9,30.15,NNW,331,8.0,9.0,62,0.00,,,0.00,WeatherCatV1.13B119,2013-03-08 16:13:00,
2013-03-08 11:18:00,70.9,56.8,30.15,NNE,21,6.0,11.0,61,0.00,,,0.00,WeatherCatV1.13B119,2013-03-08 16:18:00,
2013-03-08 11:23:00,71.0,56.9,30.14,NNE,23,8.0,10.0,61,0.00,,,0.00,WeatherCatV1.13B119,2013-03-08 16:23:00,
2013-03-08 11:28:00,71.2,57.0,30.14,North,351,1.0,8.0,61,0.00,,,0.00,WeatherCatV1.13B119,2013-03-08 16:28:00,
2013-03-08 11:33:00,71.6,57.4,30.14,NNE,15,8.0,8.0,61,0.00,,,0.00,WeatherCatV1.13B119,2013-03-08 16:33:00,
2013-03-08 11:38:00,71.2,57.0,30.14,NNE,15,13.0,13.0,61,0.00,,,0.00,WeatherCatV1.13B119,2013-03-08 16:38:00,
2013-03-08 11:43:00,71.1,57.4,30.14,NNW,338,0.0,11.0,62,0.00,,,0.00,WeatherCatV1.13B119,2013-03-08 16:43:00,
2013-03-08 11:48:00,71.6,57.4,30.14,NNE,24,10.0,10.0,61,0.00,,,0.00,WeatherCatV1.13B119,2013-03-08 16:48:00,
2013-03-08 11:53:00,71.8,58.1,30.14,North,0,6.0,13.0,62,0.00,,,0.00,WeatherCatV1.13B119,2013-03-08 16:53:00,
2013-03-08 11:58:00,71.9,58.6,30.13,NNE,22,8.0,8.0,63,0.00,,,0.00,WeatherCatV1.13B119,2013-03-08 16:58:00,
2013-03-08 12:03:00,72.4,58.6,30.13,NNE,19,0.0,6.0,62,0.00,,,0.00,WeatherCatV1.13B119,2013-03-08 17:03:00,
2013-03-08 12:08:00,72.9,58.6,30.12,NNE,18,4.0,12.0,61,0.00,,,0.00,WeatherCatV1.13B119,2013-03-08 17:08:00,
2013-03-08 12:13:00,72.6,59.3,30.12,NE,44,9.0,11.0,63,0.00,,,0.00,WeatherCatV1.13B119,2013-03-08 17:13:00,
2013-03-08 12:18:00,73.1,59.3,30.12,East,98,0.0,8.0,62,0.00,,,0.00,WeatherCatV1.13B119,2013-03-08 17:18:00,
2013-03-08 12:23:00,73.0,59.2,30.12,NNE,18,4.0,8.0,62,0.00,,,0.00,WeatherCatV1.13B119,2013-03-08 17:23:00,
2013-03-08 12:28:00,72.5,59.2,30.12,NNE,28,0.0,11.0,63,0.00,,,0.00,WeatherCatV1.13B119,2013-03-08 17:28:00,
2013-03-08 12:33:00,72.3,58.1,30.12,North,355,12.0,12.0,61,0.00,,,0.00,WeatherCatV1.13B119,2013-03-08 17:33:00,
2013-03-08 12:38:00,73.0,59.2,30.12,NW,317,0.0,0.0,62,0.00,,,0.00,WeatherCatV1.13B119,2013-03-08 17:38:00,
2013-03-08 12:43:00,73.4,59.1,30.12,NNE,19,9.0,10.0,61,0.00,,,0.00,WeatherCatV1.13B119,2013-03-08 17:43:00,
2013-03-08 12:48:00,73.5,59.2,30.12,NNE,15,6.0,9.0,61,0.00,,,0.00,WeatherCatV1.13B119,2013-03-08 17:48:00,
2013-03-08 12:53:00,73.6,59.3,30.12,NNE,15,2.0,2.0,61,0.00,,,0.00,WeatherCatV1.13B119,2013-03-08 17:53:00,
2013-03-08 12:58:00,73.5,58.7,30.12,NNE,29,0.0,8.0,60,0.00,,,0.00,WeatherCatV1.13B119,2013-03-08 17:58:00,
2013-03-08 13:03:00,74.0,59.2,30.12,NNE,25,6.0,11.0,60,0.00,,,0.00,WeatherCatV1.13B119,2013-03-08 18:03:00,
2013-03-08 13:08:00,73.5,58.7,30.11,NNE,14,6.0,10.0,60,0.00,,,0.00,WeatherCatV1.13B119,2013-03-08 18:08:00,
2013-03-08 13:13:00,73.1,58.4,30.11,North,349,11.0,16.0,60,0.00,,,0.00,WeatherCatV1.13B119,2013-03-08 18:13:00,
2013-03-08 13:18:00,73.0,58.3,30.10,NNE,22,10.0,14.0,60,0.00,,,0.00,WeatherCatV1.13B119,2013-03-08 18:18:00,
2013-03-08 13:23:00,73.1,58.4,30.10,NNE,23,8.0,13.0,60,0.00,,,0.00,WeatherCatV1.13B119,2013-03-08 18:23:00,
2013-03-08 13:28:00,72.9,58.6,30.09,NNE,25,5.0,6.0,61,0.00,,,0.00,WeatherCatV1.13B119,2013-03-08 18:28:00,
2013-03-08 13:33:00,73.3,59.0,30.09,NNW,344,0.0,9.0,61,0.00,,,0.00,WeatherCatV1.13B119,2013-03-08 18:33:00,
2013-03-08 13:38:00,73.6,58.8,30.09,North,355,0.0,13.0,60,0.00,,,0.00,WeatherCatV1.13B119,2013-03-08 18:38:00,
2013-03-08 13:43:00,73.5,58.7,30.09,NE,45,0.0,10.0,60,0.00,,,0.00,WeatherCatV1.13B119,2013-03-08 18:43:00,
2013-03-08 13:48:00,73.9,58.7,30.09,NE,34,3.0,13.0,59,0.00,,,0.00,WeatherCatV1.13B119,2013-03-08 18:48:00,
2013-03-08 13:53:00,73.7,58.9,30.09,NNE,33,0.0,13.0,60,0.00,,,0.00,WeatherCatV1.13B119,2013-03-08 18:53:00,
2013-03-08 13:58:00,73.6,59.3,30.09,East,80,1.0,7.0,61,0.00,,,0.00,WeatherCatV1.13B119,2013-03-08 18:58:00,
2013-03-08 14:03:00,73.6,58.8,30.09,NNE,29,1.0,5.0,60,0.00,,,0.00,WeatherCatV1.13B119,2013-03-08 19:03:00,
2013-03-08 14:08:00,74.0,59.2,30.09,North,0,0.0,2.0,60,0.00,,,0.00,WeatherCatV1.13B119,2013-03-08 19:08:00,
2013-03-08 14:13:00,74.0,59.2,30.09,NE,47,6.0,9.0,60,0.00,,,0.00,WeatherCatV1.13B119,2013-03-08 19:13:00,
2013-03-08 14:18:00,74.2,58.9,30.09,North,11,0.0,2.0,59,0.00,,,0.00,WeatherCatV1.13B119,2013-03-08 19:18:00,
2013-03-08 14:23:00,74.3,59.5,30.09,NNE,25,0.0,5.0,60,0.00,,,0.00,WeatherCatV1.13B119,2013-03-08 19:23:00,
2013-03-08 14:28:00,74.4,60.1,30.09,NNE,30,1.0,1.0,61,0.00,,,0.00,WeatherCatV1.13B119,2013-03-08 19:28:00,
2013-03-08 14:33:00,73.7,60.3,30.09,ESE,110,0.0,5.0,63,0.00,,,0.00,WeatherCatV1.13B119,2013-03-08 19:33:00,
2013-03-08 14:38:00,73.0,61.0,30.09,ESE,120,4.0,6.0,66,0.00,,,0.00,WeatherCatV1.13B119,2013-03-08 19:38:00,
2013-03-08 14:43:00,72.9,60.4,30.09,ESE,113,0.0,2.0,65,0.00,,,0.00,WeatherCatV1.13B119,2013-03-08 19:43:00,
2013-03-08 14:48:00,72.7,60.7,30.08,NNE,15,0.0,5.0,66,0.00,,,0.00,WeatherCatV1.13B119,2013-03-08 19:48:00,
2013-03-08 14:53:00,72.4,60.4,30.09,East,97,0.0,4.0,66,0.00,,,0.00,WeatherCatV1.13B119,2013-03-08 19:53:00,
2013-03-08 14:58:00,72.2,60.2,30.09,East,88,0.0,2.0,66,0.00,,,0.00,WeatherCatV1.13B119,2013-03-08 19:58:00,
2013-03-08 15:03:00,72.1,60.1,30.09,NE,55,2.0,2.0,66,0.00,,,0.00,WeatherCatV1.13B119,2013-03-08 20:03:00,
2013-03-08 15:08:00,72.1,60.1,30.09,East,82,4.0,4.0,66,0.00,,,0.00,WeatherCatV1.13B119,2013-03-08 20:08:00,
2013-03-08 15:13:00,71.8,60.2,30.09,East,96,0.0,5.0,67,0.00,,,0.00,WeatherCatV1.13B119,2013-03-08 20:13:00,
2013-03-08 15:18:00,71.6,60.0,30.08,ESE,111,0.0,1.0,67,0.00,,,0.00,WeatherCatV1.13B119,2013-03-08 20:18:00,
2013-03-08 15:23:00,71.2,60.1,30.08,SE,132,0.0,4.0,68,0.00,,,0.00,WeatherCatV1.13B119,2013-03-08 20:23:00,
2013-03-08 15:28:00,71.0,60.7,30.08,NE,44,0.0,1.0,70,0.00,,,0.00,WeatherCatV1.13B119,2013-03-08 20:28:00,
2013-03-08 15:34:00,71.1,61.2,30.08,SSE,155,0.0,1.0,71,0.00,,,0.00,WeatherCatV1.13B119,2013-03-08 20:34:00,
2013-03-08 15:38:00,71.2,61.3,30.08,East,101,0.0,1.0,71,0.00,,,0.00,WeatherCatV1.13B119,2013-03-08 20:38:00,
2013-03-08 15:44:00,71.3,61.8,30.08,ENE,77,0.0,0.0,72,0.00,,,0.00,WeatherCatV1.13B119,2013-03-08 20:44:00,
2013-03-08 15:49:00,71.3,61.0,30.08,ENE,60,0.0,1.0,70,0.00,,,0.00,WeatherCatV1.13B119,2013-03-08 20:49:00,
2013-03-08 15:54:00,71.4,61.5,30.08,East,99,0.0,4.0,71,0.00,,,0.00,WeatherCatV1.13B119,2013-03-08 20:54:00,
2013-03-08 15:59:00,71.4,61.5,30.08,East,91,0.0,2.0,71,0.00,,,0.00,WeatherCatV1.13B119,2013-03-08 20:59:00,
2013-03-08 16:04:00,71.4,61.5,30.08,ESE,104,0.0,5.0,71,0.00,,,0.00,WeatherCatV1.13B119,2013-03-08 21:04:00,
2013-03-08 16:09:00,71.3,61.4,30.08,East,80,0.0,2.0,71,0.00,,,0.00,WeatherCatV1.13B119,2013-03-08 21:09:00,
2013-03-08 16:14:00,71.3,61.4,30.08,East,88,0.0,4.0,71,0.00,,,0.00,WeatherCatV1.13B119,2013-03-08 21:14:00,
2013-03-08 16:19:00,71.1,61.2,30.08,SE,128,0.0,0.0,71,0.00,,,0.00,WeatherCatV1.13B119,2013-03-08 21:19:00,
2013-03-08 16:24:00,71.1,61.6,30.08,SE,126,0.0,1.0,72,0.00,,,0.00,WeatherCatV1.13B119,2013-03-08 21:24:00,
2013-03-08 16:29:00,71.0,61.1,30.08,ESE,121,0.0,1.0,71,0.00,,,0.00,WeatherCatV1.13B119,2013-03-08 21:29:00,
2013-03-08 16:34:00,71.0,61.1,30.08,ESE,115,0.0,1.0,71,0.00,,,0.00,WeatherCatV1.13B119,2013-03-08 21:34:00,
2013-03-08 16:39:00,70.9,61.0,30.08,ESE,117,0.0,5.0,71,0.00,,,0.00,WeatherCatV1.13B119,2013-03-08 21:39:00,
2013-03-08 16:44:00,71.0,61.1,30.08,East,100,0.0,1.0,71,0.00,,,0.00,WeatherCatV1.13B119,2013-03-08 21:44:00,
2013-03-08 16:49:00,70.9,61.0,30.08,ESE,102,0.0,0.0,71,0.00,,,0.00,WeatherCatV1.13B119,2013-03-08 21:49:00,
2013-03-08 16:54:00,70.9,61.4,30.08,ESE,103,0.0,1.0,72,0.00,,,0.00,WeatherCatV1.13B119,2013-03-08 21:54:00,
2013-03-08 16:59:00,70.8,61.3,30.08,ENE,75,0.0,0.0,72,0.00,,,0.00,WeatherCatV1.13B119,2013-03-08 21:59:00,
2013-03-08 17:04:00,70.8,61.3,30.08,ENE,75,0.0,0.0,72,0.00,,,0.00,WeatherCatV1.13B119,2013-03-08 22:04:00,
2013-03-08 17:09:00,70.7,61.2,30.08,ENE,76,0.0,1.0,72,0.00,,,0.00,WeatherCatV1.13B119,2013-03-08 22:09:00,
2013-03-08 17:14:00,70.7,61.2,30.08,East,86,0.0,0.0,72,0.00,,,0.00,WeatherCatV1.13B119,2013-03-08 22:14:00,
2013-03-08 17:19:00,70.6,61.1,30.08,East,86,0.0,0.0,72,0.00,,,0.00,WeatherCatV1.13B119,2013-03-08 22:19:00,
2013-03-08 17:24:00,70.6,61.1,30.09,East,86,0.0,0.0,72,0.00,,,0.00,WeatherCatV1.13B119,2013-03-08 22:24:00,
2013-03-08 17:29:00,70.5,61.0,30.09,East,96,0.0,0.0,72,0.00,,,0.00,WeatherCatV1.13B119,2013-03-08 22:29:00,
2013-03-08 17:34:00,70.4,61.3,30.08,ESE,103,0.0,0.0,73,0.00,,,0.00,WeatherCatV1.13B119,2013-03-08 22:34:00,
2013-03-08 17:39:00,70.3,60.8,30.09,ESE,103,0.0,0.0,72,0.00,,,0.00,WeatherCatV1.13B119,2013-03-08 22:39:00,
2013-03-08 17:44:00,70.3,60.8,30.08,East,101,0.0,0.0,72,0.00,,,0.00,WeatherCatV1.13B119,2013-03-08 22:44:00,
2013-03-08 17:49:00,70.2,61.1,30.09,East,101,0.0,0.0,73,0.00,,,0.00,WeatherCatV1.13B119,2013-03-08 22:49:00,
2013-03-08 17:54:00,70.2,61.5,30.09,East,101,0.0,0.0,74,0.00,,,0.00,WeatherCatV1.13B119,2013-03-08 22:54:00,
2013-03-08 17:59:00,70.1,61.0,30.09,East,101,0.0,0.0,73,0.00,,,0.00,WeatherCatV1.13B119,2013-03-08 22:59:00,
2013-03-08 18:04:00,70.0,60.9,30.10,East,101,0.0,0.0,73,0.00,,,0.00,WeatherCatV1.13B119,2013-03-08 23:04:00,
2013-03-08 18:09:00,69.9,60.8,30.10,East,101,0.0,0.0,73,0.00,,,0.00,WeatherCatV1.13B119,2013-03-08 23:09:00,
2013-03-08 18:14:00,69.8,60.7,30.10,East,101,0.0,0.0,73,0.00,,,0.00,WeatherCatV1.13B119,2013-03-08 23:14:00,
2013-03-08 18:19:00,69.7,60.6,30.10,East,101,0.0,0.0,73,0.00,,,0.00,WeatherCatV1.13B119,2013-03-08 23:19:00,
2013-03-08 18:24:00,69.7,60.6,30.10,East,101,0.0,0.0,73,0.00,,,0.00,WeatherCatV1.13B119,2013-03-08 23:24:00,
2013-03-08 18:29:00,69.6,60.5,30.10,East,101,0.0,0.0,73,0.00,,,0.00,WeatherCatV1.13B119,2013-03-08 23:29:00,
2013-03-08 18:34:00,69.5,60.5,30.10,East,101,0.0,0.0,73,0.00,,,0.00,WeatherCatV1.13B119,2013-03-08 23:34:00,
2013-03-08 18:39:00,69.4,60.4,30.10,East,101,0.0,0.0,73,0.00,,,0.00,WeatherCatV1.13B119,2013-03-08 23:39:00,
2013-03-08 18:44:00,69.2,60.2,30.10,East,101,0.0,0.0,73,0.00,,,0.00,WeatherCatV1.13B119,2013-03-08 23:44:00,
2013-03-08 18:49:00,69.1,60.1,30.10,East,101,0.0,0.0,73,0.00,,,0.00,WeatherCatV1.13B119,2013-03-08 23:49:00,
2013-03-08 18:54:00,68.9,59.9,30.10,East,101,0.0,0.0,73,0.00,,,0.00,WeatherCatV1.13B119,2013-03-08 23:54:00,
2013-03-08 18:59:00,68.7,59.7,30.10,East,101,0.0,0.0,73,0.00,,,0.00,WeatherCatV1.13B119,2013-03-08 23:59:00,
2013-03-08 19:04:00,68.6,59.6,30.10,East,101,0.0,0.0,73,0.00,,,0.00,WeatherCatV1.13B119,2013-03-09 00:04:00,
2013-03-08 19:09:00,68.4,59.4,30.10,East,101,0.0,0.0,73,0.00,,,0.00,WeatherCatV1.13B119,2013-03-09 00:09:00,
2013-03-08 19:14:00,68.3,59.3,30.10,East,101,0.0,0.0,73,0.00,,,0.00,WeatherCatV1.13B119,2013-03-09 00:14:00,
2013-03-08 19:19:00,68.1,59.1,30.11,East,101,0.0,0.0,73,0.00,,,0.00,WeatherCatV1.13B119,2013-03-09 00:19:00,
2013-03-08 19:24:00,67.9,59.3,30.10,East,101,0.0,0.0,74,0.00,,,0.00,WeatherCatV1.13B119,2013-03-09 00:24:00,
2013-03-08 19:29:00,67.7,58.7,30.11,East,101,0.0,0.0,73,0.00,,,0.00,WeatherCatV1.13B119,2013-03-09 00:29:00,
2013-03-08 19:34:00,67.5,58.9,30.11,East,101,0.0,0.0,74,0.00,,,0.00,WeatherCatV1.13B119,2013-03-09 00:34:00,
2013-03-08 19:39:00,67.3,58.7,30.11,East,101,0.0,0.0,74,0.00,,,0.00,WeatherCatV1.13B119,2013-03-09 00:39:00,
2013-03-08 19:44:00,67.1,58.5,30.11,East,101,0.0,0.0,74,0.00,,,0.00,WeatherCatV1.13B119,2013-03-09 00:44:00,
2013-03-08 19:49:00,66.9,58.7,30.11,East,101,0.0,0.0,75,0.00,,,0.00,WeatherCatV1.13B119,2013-03-09 00:49:00,
2013-03-08 19:54:00,66.7,58.5,30.11,East,101,0.0,0.0,75,0.00,,,0.00,WeatherCatV1.13B119,2013-03-09 00:54:00,
2013-03-08 19:59:00,66.6,58.4,30.11,East,101,0.0,0.0,75,0.00,,,0.00,WeatherCatV1.13B119,2013-03-09 00:59:00,
2013-03-08 20:04:00,66.4,58.2,30.11,East,101,0.0,0.0,75,0.00,,,0.00,WeatherCatV1.13B119,2013-03-09 01:04:00,
2013-03-08 20:09:00,66.2,58.4,30.11,East,101,1.0,1.0,76,0.00,,,0.00,WeatherCatV1.13B119,2013-03-09 01:09:00,
2013-03-08 20:14:00,66.1,58.3,30.12,East,101,0.0,0.0,76,0.00,,,0.00,WeatherCatV1.13B119,2013-03-09 01:14:00,
2013-03-08 20:19:00,66.0,58.6,30.12,East,101,0.0,0.0,77,0.00,,,0.00,WeatherCatV1.13B119,2013-03-09 01:19:00,
2013-03-08 20:24:00,65.9,58.5,30.12,East,101,0.0,0.0,77,0.00,,,0.00,WeatherCatV1.13B119,2013-03-09 01:24:00,
2013-03-08 20:29:00,65.9,58.8,30.12,East,101,0.0,0.0,78,0.00,,,0.00,WeatherCatV1.13B119,2013-03-09 01:29:00,
2013-03-08 20:34:00,65.8,58.7,30.12,East,101,0.0,0.0,78,0.00,,,0.00,WeatherCatV1.13B119,2013-03-09 01:34:00,
2013-03-08 20:39:00,65.8,58.7,30.12,East,101,0.0,0.0,78,0.00,,,0.00,WeatherCatV1.13B119,2013-03-09 01:39:00,
2013-03-08 20:44:00,65.8,59.1,30.12,East,101,0.0,0.0,79,0.00,,,0.00,WeatherCatV1.13B119,2013-03-09 01:44:00,
2013-03-08 20:49:00,65.8,59.5,30.12,East,101,0.0,0.0,80,0.00,,,0.00,WeatherCatV1.13B119,2013-03-09 01:49:00,
2013-03-08 20:54:00,65.8,60.1,30.12,East,101,0.0,0.0,82,0.00,,,0.00,WeatherCatV1.13B119,2013-03-09 01:54:00,
2013-03-08 20:59:00,65.8,60.5,30.12,East,101,0.0,1.0,83,0.00,,,0.00,WeatherCatV1.13B119,2013-03-09 01:59:00,
2013-03-08 21:04:00,65.8,60.5,30.13,East,90,0.0,0.0,83,0.00,,,0.00,WeatherCatV1.13B119,2013-03-09 02:04:00,
2013-03-08 21:09:00,65.7,60.4,30.13,East,90,0.0,0.0,83,0.00,,,0.00,WeatherCatV1.13B119,2013-03-09 02:09:00,
2013-03-08 21:14:00,65.5,59.9,30.13,East,90,0.0,0.0,82,0.00,,,0.00,WeatherCatV1.13B119,2013-03-09 02:14:00,
2013-03-08 21:19:00,65.5,59.5,30.13,East,83,0.0,1.0,81,0.00,,,0.00,WeatherCatV1.13B119,2013-03-09 02:19:00,
2013-03-08 21:24:00,65.4,59.4,30.13,ENE,78,0.0,0.0,81,0.00,,,0.00,WeatherCatV1.13B119,2013-03-09 02:24:00,
2013-03-08 21:29:00,65.3,59.0,30.13,ENE,78,0.0,1.0,80,0.00,,,0.00,WeatherCatV1.13B119,2013-03-09 02:29:00,
2013-03-08 21:34:00,65.3,59.0,30.13,ENE,78,0.0,0.0,80,0.00,,,0.00,WeatherCatV1.13B119,2013-03-09 02:34:00,
2013-03-08 21:39:00,65.2,58.9,30.13,ENE,62,0.0,0.0,80,0.00,,,0.00,WeatherCatV1.13B119,2013-03-09 02:39:00,
2013-03-08 21:44:00,65.2,59.2,30.13,NE,53,0.0,1.0,81,0.00,,,0.00,WeatherCatV1.13B119,2013-03-09 02:44:00,
2013-03-08 21:49:00,65.2,59.2,30.13,NE,52,0.0,0.0,81,0.00,,,0.00,WeatherCatV1.13B119,2013-03-09 02:49:00,
2013-03-08 21:54:00,65.2,59.2,30.13,NE,36,0.0,0.0,81,0.00,,,0.00,WeatherCatV1.13B119,2013-03-09 02:54:00,
2013-03-08 21:59:00,65.2,59.2,30.13,NNW,346,0.0,0.0,81,0.00,,,0.00,WeatherCatV1.13B119,2013-03-09 02:59:00,
2013-03-08 22:04:00,65.2,59.2,30.13,NNW,346,0.0,0.0,81,0.00,,,0.00,WeatherCatV1.13B119,2013-03-09 03:04:00,
2013-03-08 22:09:00,65.2,59.2,30.13,North,355,0.0,5.0,81,0.00,,,0.00,WeatherCatV1.13B119,2013-03-09 03:09:00,
2013-03-08 22:14:00,65.2,59.6,30.13,North,355,0.0,5.0,82,0.00,,,0.00,WeatherCatV1.13B119,2013-03-09 03:14:00,
2013-03-08 22:19:00,65.2,59.6,30.13,North,355,0.0,0.0,82,0.00,,,0.00,WeatherCatV1.13B119,2013-03-09 03:19:00,
2013-03-08 22:24:00,65.2,59.6,30.13,North,355,2.0,5.0,82,0.00,,,0.00,WeatherCatV1.13B119,2013-03-09 03:24:00,
2013-03-08 22:29:00,65.2,59.9,30.13,North,355,0.0,5.0,83,0.00,,,0.00,WeatherCatV1.13B119,2013-03-09 03:29:00,
2013-03-08 22:34:00,65.3,60.3,30.13,North,355,5.0,5.0,84,0.00,,,0.00,WeatherCatV1.13B119,2013-03-09 03:34:00,
2013-03-08 22:39:00,65.2,60.2,30.13,North,355,0.0,0.0,84,0.00,,,0.00,WeatherCatV1.13B119,2013-03-09 03:39:00,
2013-03-08 22:44:00,65.2,60.2,30.13,NNW,345,0.0,2.0,84,0.00,,,0.00,WeatherCatV1.13B119,2013-03-09 03:44:00,
2013-03-08 22:49:00,65.2,60.2,30.13,NNW,342,0.0,5.0,84,0.00,,,0.00,WeatherCatV1.13B119,2013-03-09 03:49:00,
2013-03-08 22:54:00,65.1,60.1,30.13,NNW,343,0.0,2.0,84,0.00,,,0.00,WeatherCatV1.13B119,2013-03-09 03:54:00,
2013-03-08 22:59:00,65.1,60.1,30.13,NNW,338,0.0,1.0,84,0.00,,,0.00,WeatherCatV1.13B119,2013-03-09 03:59:00,
2013-03-08 23:04:00,65.0,60.0,30.13,NNW,338,0.0,1.0,84,0.00,,,0.00,WeatherCatV1.13B119,2013-03-09 04:04:00,
2013-03-08 23:09:00,65.0,60.0,30.13,NNW,338,0.0,4.0,84,0.00,,,0.00,WeatherCatV1.13B119,2013-03-09 04:09:00,
2013-03-08 23:14:00,64.9,59.6,30.13,NNW,339,0.0,1.0,83,0.00,,,0.00,WeatherCatV1.13B119,2013-03-09 04:14:00,
2013-03-08 23:19:00,64.9,59.9,30.13,NNW,338,3.0,4.0,84,0.00,,,0.00,WeatherCatV1.13B119,2013-03-09 04:19:00,
2013-03-08 23:24:00,64.9,59.9,30.13,NW,322,1.0,5.0,84,0.00,,,0.00,WeatherCatV1.13B119,2013-03-09 04:24:00,
2013-03-08 23:29:00,64.9,59.9,30.13,NW,325,0.0,4.0,84,0.00,,,0.00,WeatherCatV1.13B119,2013-03-09 04:29:00,
2013-03-08 23:34:00,64.9,59.9,30.13,NW,326,0.0,6.0,84,0.00,,,0.00,WeatherCatV1.13B119,2013-03-09 04:34:00,
2013-03-08 23:39:00,64.9,59.9,30.13,NNW,329,0.0,1.0,84,0.00,,,0.00,WeatherCatV1.13B119,2013-03-09 04:39:00,
2013-03-08 23:44:00,64.9,60.3,30.13,NNW,331,0.0,1.0,85,0.00,,,0.00,WeatherCatV1.13B119,2013-03-09 04:44:00,
2013-03-08 23:49:00,64.8,60.2,30.12,NNW,338,0.0,2.0,85,0.00,,,0.00,WeatherCatV1.13B119,2013-03-09 04:49:00,
2013-03-08 23:54:00,64.8,59.8,30.12,NW,322,0.0,5.0,84,0.00,,,0.00,WeatherCatV1.13B119,2013-03-09 04:54:00,
2013-03-08 23:59:00,64.8,59.8,30.12,NNW,333,3.0,3.0,84,0.00,,,0.00,WeatherCatV1.13B119,2013-03-09 04:59:00,